Time;durP1;ratioP1;P1;durP2;ratioP2;P2;SDS_P1;SDS_P2;PMS_P1;PMS_P2;Temp;Humidity;BMP_temperature;BMP_pressure;BME280_temperature;BME280_humidity;BME280_pressure;Samples;Min_cycle;Max_cycle;Signal;HPM_P1;HPM_P2
2021/04/16 00:00:22;;;;;;;2.93;1.40;;;;;;;;;;5078941;28;20187;-70
2021/04/16 00:02:48;;;;;;;2.80;2.07;;;;;;;;;;5076482;28;20180;-69
2021/04/16 00:05:13;;;;;;;1.83;1.40;;;;;;;;;;5079978;28;20190;-69
2021/04/16 00:07:39;;;;;;;2.30;1.50;;;;;;;;;;5078511;28;20181;-69
2021/04/16 00:10:06;;;;;;;2.33;1.37;;;;;;;;;;5084754;28;20700;-69
2021/04/16 00:12:31;;;;;;;2.60;1.77;;;;;;;;;;5076950;28;20423;-69
2021/04/16 00:14:57;;;;;;;2.27;1.60;;;;;;;;;;5074447;28;20180;-69
2021/04/16 00:17:22;;;;;;;1.77;1.50;;;;;;;;;;5078611;28;20183;-70
2021/04/16 00:19:47;;;;;;;1.90;1.53;;;;;;;;;;5071365;28;20192;-69
2021/04/16 00:22:12;;;;;;;2.00;1.50;;;;;;;;;;5079242;28;20215;-70
2021/04/16 00:24:37;;;;;;;2.20;1.40;;;;;;;;;;5079356;28;20706;-69
2021/04/16 00:27:03;;;;;;;2.87;1.60;;;;;;;;;;5078992;28;20282;-69
2021/04/16 00:29:28;;;;;;;4.87;1.90;;;;;;;;;;5078860;28;20204;-70
2021/04/16 00:31:55;;;;;;;1.93;1.73;;;;;;;;;;5082024;28;20199;-70
2021/04/16 00:34:21;;;;;;;3.37;1.67;;;;;;;;;;5083908;28;20187;-70
2021/04/16 00:36:46;;;;;;;3.73;1.90;;;;;;;;;;5072169;28;20696;-69
2021/04/16 00:39:12;;;;;;;2.10;1.83;;;;;;;;;;5085728;28;20255;-70
2021/04/16 00:41:37;;;;;;;3.47;1.90;;;;;;;;;;5077087;28;20214;-70
2021/04/16 00:44:03;;;;;;;3.43;1.80;;;;;;;;;;5081509;28;20211;-69
2021/04/16 00:46:28;;;;;;;2.87;1.90;;;;;;;;;;5080232;28;20272;-70
2021/04/16 00:48:56;;;;;;;3.00;1.70;;;;;;;;;;5075224;28;20291;-69
2021/04/16 00:51:25;;;;;;;1.77;1.47;;;;;;;;;;5075193;28;20204;-70
2021/04/16 00:53:51;;;;;;;3.00;1.63;;;;;;;;;;5084855;28;20671;-69
2021/04/16 00:56:16;;;;;;;2.77;1.87;;;;;;;;;;5087402;28;20250;-70
2021/04/16 00:58:41;;;;;;;2.47;1.70;;;;;;;;;;5089454;28;20185;-69
2021/04/16 01:01:07;;;;;;;4.03;2.13;;;;;;;;;;5078791;28;20210;-70
2021/04/16 01:03:32;;;;;;;1.97;1.47;;;;;;;;;;5082514;28;20176;-69
2021/04/16 01:05:59;;;;;;;3.97;2.23;;;;;;;;;;5089092;28;20215;-70
2021/04/16 01:08:24;;;;;;;2.97;1.83;;;;;;;;;;5086260;28;20207;-69
2021/04/16 01:10:53;;;;;;;3.33;2.00;;;;;;;;;;5075896;28;20193;-70
2021/04/16 01:13:19;;;;;;;2.77;2.10;;;;;;;;;;5080618;28;20184;-69
2021/04/16 01:15:52;;;;;;;2.97;1.97;;;;;;;;;;5077652;28;20169;-69
2021/04/16 01:18:18;;;;;;;3.20;1.77;;;;;;;;;;5080051;28;20223;-69
2021/04/16 01:20:45;;;;;;;3.17;2.33;;;;;;;;;;5081067;28;20252;-69
2021/04/16 01:23:35;;;;;;;2.33;1.67;;;;;;;;;;5084084;28;20188;-69
2021/04/16 01:26:01;;;;;;;3.77;1.90;;;;;;;;;;5075756;28;20196;-70
2021/04/16 01:28:26;;;;;;;4.20;2.10;;;;;;;;;;5078043;28;20201;-70
2021/04/16 01:30:54;;;;;;;2.97;1.97;;;;;;;;;;5084686;28;20276;-68
2021/04/16 01:33:19;;;;;;;2.83;1.90;;;;;;;;;;5080103;28;20196;-70
2021/04/16 01:35:45;;;;;;;3.30;2.10;;;;;;;;;;5078064;28;20219;-70
2021/04/16 01:38:10;;;;;;;3.03;2.20;;;;;;;;;;5081835;28;20181;-69
2021/04/16 01:40:35;;;;;;;3.17;2.30;;;;;;;;;;5081143;28;20701;-70
2021/04/16 01:43:13;;;;;;;3.17;2.17;;;;;;;;;;5081442;28;20215;-69
2021/04/16 01:45:38;;;;;;;5.33;2.10;;;;;;;;;;5085113;28;20180;-69
2021/04/16 01:48:03;;;;;;;3.57;2.37;;;;;;;;;;5078388;28;20549;-70
2021/04/16 01:50:29;;;;;;;2.43;2.20;;;;;;;;;;5081469;28;20989;-69
2021/04/16 01:52:56;;;;;;;2.60;2.13;;;;;;;;;;5079905;28;20176;-70
2021/04/16 01:55:21;;;;;;;3.10;2.13;;;;;;;;;;5076530;28;20187;-69
2021/04/16 01:57:47;;;;;;;3.17;2.27;;;;;;;;;;5082468;28;20172;-69
2021/04/16 02:00:15;;;;;;;3.93;2.50;;;;;;;;;;5078941;28;20616;-70
2021/04/16 02:02:40;;;;;;;2.80;2.30;;;;;;;;;;5078118;28;20188;-70
2021/04/16 02:05:06;;;;;;;3.80;2.70;;;;;;;;;;5080064;28;20536;-70
2021/04/16 02:07:31;;;;;;;3.23;2.63;;;;;;;;;;5085718;28;20184;-71
2021/04/16 02:09:57;;;;;;;3.07;2.37;;;;;;;;;;5076668;28;20826;-70
2021/04/16 02:12:23;;;;;;;3.43;2.43;;;;;;;;;;5078087;28;20197;-70
2021/04/16 02:14:48;;;;;;;5.57;2.60;;;;;;;;;;5078204;28;20180;-69
2021/04/16 02:17:15;;;;;;;5.97;2.70;;;;;;;;;;5078104;28;20736;-70
2021/04/16 02:19:40;;;;;;;3.43;2.40;;;;;;;;;;5080006;28;20271;-70
2021/04/16 02:22:10;;;;;;;4.03;2.60;;;;;;;;;;5077106;28;20358;-70
2021/04/16 02:24:35;;;;;;;7.00;2.67;;;;;;;;;;5079456;28;20188;-70
2021/04/16 02:27:00;;;;;;;3.13;2.33;;;;;;;;;;5077193;28;20488;-69
2021/04/16 02:29:26;;;;;;;4.97;2.63;;;;;;;;;;5081130;28;20611;-68
2021/04/16 02:31:51;;;;;;;4.10;2.73;;;;;;;;;;5087348;28;20187;-70
2021/04/16 02:34:21;;;;;;;3.03;2.60;;;;;;;;;;5077560;28;20189;-68
2021/04/16 02:36:47;;;;;;;4.20;2.57;;;;;;;;;;5079463;28;20237;-70
2021/04/16 02:39:12;;;;;;;3.43;2.60;;;;;;;;;;5078660;28;20583;-69
2021/04/16 02:41:38;;;;;;;4.17;3.10;;;;;;;;;;5078982;28;20245;-69
2021/04/16 02:44:03;;;;;;;5.47;2.77;;;;;;;;;;5079703;28;20180;-69
2021/04/16 02:46:28;;;;;;;3.63;2.83;;;;;;;;;;5076446;28;20177;-69
2021/04/16 02:48:53;;;;;;;3.90;2.43;;;;;;;;;;5084837;28;20701;-69
2021/04/16 02:51:19;;;;;;;4.93;2.80;;;;;;;;;;5076633;28;20188;-70
2021/04/16 02:53:44;;;;;;;5.43;3.13;;;;;;;;;;5072201;28;20181;-70
2021/04/16 02:56:09;;;;;;;5.53;2.87;;;;;;;;;;5084499;28;20185;-70
2021/04/16 02:58:34;;;;;;;6.30;2.83;;;;;;;;;;5077330;28;20603;-69
2021/04/16 03:01:00;;;;;;;5.70;3.37;;;;;;;;;;5083276;28;20627;-70
2021/04/16 03:03:25;;;;;;;5.57;3.20;;;;;;;;;;5075077;28;20185;-70
2021/04/16 03:05:51;;;;;;;3.67;2.70;;;;;;;;;;5075565;28;20281;-70
2021/04/16 03:08:17;;;;;;;3.90;2.83;;;;;;;;;;5078057;28;20203;-69
2021/04/16 03:10:42;;;;;;;4.53;3.40;;;;;;;;;;5073347;28;20690;-70
2021/04/16 03:13:07;;;;;;;4.57;3.00;;;;;;;;;;5081440;28;20238;-70
2021/04/16 03:15:34;;;;;;;4.33;2.67;;;;;;;;;;5073903;28;20180;-70
2021/04/16 03:17:59;;;;;;;5.17;2.93;;;;;;;;;;5076021;28;20187;-69
2021/04/16 03:20:25;;;;;;;4.00;2.90;;;;;;;;;;5083412;28;20196;-70
2021/04/16 03:22:50;;;;;;;4.70;3.57;;;;;;;;;;5077946;28;20180;-70
2021/04/16 03:25:16;;;;;;;5.73;3.20;;;;;;;;;;5079287;28;20208;-69
2021/04/16 03:27:42;;;;;;;5.00;2.60;;;;;;;;;;5087606;28;20180;-70
2021/04/16 03:30:09;;;;;;;4.70;2.80;;;;;;;;;;5077130;28;20291;-70
2021/04/16 03:32:34;;;;;;;7.83;3.07;;;;;;;;;;5085866;28;20491;-70
2021/04/16 03:34:59;;;;;;;3.97;3.00;;;;;;;;;;5082184;28;20204;-69
2021/04/16 03:37:24;;;;;;;4.20;3.00;;;;;;;;;;5082071;28;20679;-70
2021/04/16 03:39:49;;;;;;;4.57;3.33;;;;;;;;;;5079864;28;20261;-70
2021/04/16 03:42:15;;;;;;;7.50;3.53;;;;;;;;;;5072730;28;20209;-70
2021/04/16 03:44:40;;;;;;;3.70;2.90;;;;;;;;;;5073245;28;20212;-69
2021/04/16 03:47:05;;;;;;;6.07;3.10;;;;;;;;;;5078512;28;20183;-69
2021/04/16 03:49:30;;;;;;;8.93;3.70;;;;;;;;;;5075670;28;20611;-69
2021/04/16 03:51:56;;;;;;;4.30;2.97;;;;;;;;;;5080930;28;20192;-69
2021/04/16 03:54:22;;;;;;;5.80;3.40;;;;;;;;;;5082721;28;20172;-69
2021/04/16 03:56:48;;;;;;;8.60;3.33;;;;;;;;;;5079786;28;20296;-70
2021/04/16 03:59:13;;;;;;;5.87;3.87;;;;;;;;;;5082789;28;20188;-69
2021/04/16 04:01:38;;;;;;;4.00;3.03;;;;;;;;;;5078117;28;20204;-70
2021/04/16 04:04:03;;;;;;;5.37;3.33;;;;;;;;;;5076559;28;20183;-69
2021/04/16 04:06:29;;;;;;;5.90;3.60;;;;;;;;;;5076235;28;20227;-69
2021/04/16 04:08:54;;;;;;;3.63;3.07;;;;;;;;;;5084321;28;20200;-69
2021/04/16 04:11:19;;;;;;;4.53;2.90;;;;;;;;;;5075042;28;20803;-69
2021/04/16 04:13:44;;;;;;;7.67;3.77;;;;;;;;;;5086022;28;20692;-70
2021/04/16 04:16:09;;;;;;;4.40;3.37;;;;;;;;;;5076570;28;20188;-69
2021/04/16 04:18:35;;;;;;;6.23;4.03;;;;;;;;;;5079757;28;20241;-70
2021/04/16 04:21:00;;;;;;;6.73;4.10;;;;;;;;;;5080473;28;20686;-69
2021/04/16 04:23:26;;;;;;;5.50;3.90;;;;;;;;;;5082800;28;20267;-70
2021/04/16 04:25:51;;;;;;;4.87;3.27;;;;;;;;;;5079569;28;20192;-70
2021/04/16 04:28:16;;;;;;;5.27;4.70;;;;;;;;;;5079519;28;20308;-69
2021/04/16 04:30:41;;;;;;;6.13;4.00;;;;;;;;;;5082567;28;20204;-70
2021/04/16 04:33:07;;;;;;;5.87;3.90;;;;;;;;;;5079082;28;20180;-69
2021/04/16 04:35:33;;;;;;;6.20;4.20;;;;;;;;;;5082248;28;20231;-70
2021/04/16 04:37:58;;;;;;;6.73;3.97;;;;;;;;;;5082456;28;20175;-70
2021/04/16 04:40:24;;;;;;;4.93;3.80;;;;;;;;;;5078578;28;20189;-69
2021/04/16 04:42:49;;;;;;;6.60;3.97;;;;;;;;;;5081614;28;20172;-70
2021/04/16 04:45:15;;;;;;;6.03;3.20;;;;;;;;;;5083060;28;20187;-70
2021/04/16 04:47:40;;;;;;;4.10;3.43;;;;;;;;;;5081633;28;20185;-69
2021/04/16 04:50:06;;;;;;;6.67;4.27;;;;;;;;;;5079658;28;20200;-69
2021/04/16 04:52:32;;;;;;;10.17;5.00;;;;;;;;;;5071093;28;20182;-69
2021/04/16 04:54:58;;;;;;;6.77;4.37;;;;;;;;;;5077279;28;20176;-69
2021/04/16 04:57:25;;;;;;;5.13;3.57;;;;;;;;;;5081617;28;20234;-70
2021/04/16 04:59:50;;;;;;;6.53;4.30;;;;;;;;;;5078967;28;20193;-70
2021/04/16 05:02:17;;;;;;;6.70;3.77;;;;;;;;;;5073973;28;20206;-70
2021/04/16 05:04:42;;;;;;;5.63;3.30;;;;;;;;;;5078727;28;20642;-71
2021/04/16 05:07:07;;;;;;;6.23;3.53;;;;;;;;;;5081518;28;20176;-71
2021/04/16 05:09:32;;;;;;;6.20;4.20;;;;;;;;;;5081786;28;20650;-69
2021/04/16 05:11:58;;;;;;;8.63;4.70;;;;;;;;;;5080001;28;20207;-69
2021/04/16 05:14:23;;;;;;;8.63;4.20;;;;;;;;;;5079899;28;20217;-70
2021/04/16 05:16:48;;;;;;;10.63;4.67;;;;;;;;;;5078555;28;20591;-69
2021/04/16 05:19:14;;;;;;;10.93;5.20;;;;;;;;;;5081790;28;20862;-70
2021/04/16 05:21:39;;;;;;;10.33;4.93;;;;;;;;;;5082505;28;20207;-70
2021/04/16 05:24:05;;;;;;;10.43;5.63;;;;;;;;;;5082419;28;20172;-70
2021/04/16 05:26:31;;;;;;;6.30;4.63;;;;;;;;;;5082209;28;20275;-69
2021/04/16 05:28:56;;;;;;;9.87;5.00;;;;;;;;;;5082988;28;20203;-70
2021/04/16 05:31:21;;;;;;;8.77;4.67;;;;;;;;;;5075027;28;20195;-69
2021/04/16 05:33:46;;;;;;;5.60;4.17;;;;;;;;;;5076611;28;20543;-69
2021/04/16 05:36:11;;;;;;;14.47;5.47;;;;;;;;;;5084135;28;20598;-69
2021/04/16 05:38:37;;;;;;;10.27;4.90;;;;;;;;;;5085582;28;20209;-69
2021/04/16 05:41:02;;;;;;;9.33;4.77;;;;;;;;;;5079126;28;20685;-69
2021/04/16 05:43:28;;;;;;;8.70;4.57;;;;;;;;;;5078680;28;20195;-70
2021/04/16 05:45:53;;;;;;;7.97;5.23;;;;;;;;;;5076989;28;20182;-70
2021/04/16 05:48:18;;;;;;;9.30;4.67;;;;;;;;;;5080142;28;20315;-69
2021/04/16 05:50:43;;;;;;;8.60;5.13;;;;;;;;;;5079627;28;20313;-68
2021/04/16 05:53:08;;;;;;;11.03;5.70;;;;;;;;;;5078780;28;20195;-70
2021/04/16 05:55:34;;;;;;;10.10;6.10;;;;;;;;;;5080087;28;20570;-69
2021/04/16 05:57:59;;;;;;;12.27;5.93;;;;;;;;;;5080083;28;20184;-69
2021/04/16 06:00:25;;;;;;;11.97;6.27;;;;;;;;;;5085375;28;20334;-69
2021/04/16 06:02:50;;;;;;;13.77;6.50;;;;;;;;;;5080422;28;20181;-69
2021/04/16 06:05:16;;;;;;;11.30;6.07;;;;;;;;;;5079515;28;20546;-70
2021/04/16 06:07:42;;;;;;;11.60;5.43;;;;;;;;;;5080292;28;20194;-69
2021/04/16 06:10:08;;;;;;;8.07;5.30;;;;;;;;;;5077544;28;20746;-70
2021/04/16 06:12:34;;;;;;;8.67;5.37;;;;;;;;;;5079288;28;20190;-69
2021/04/16 06:15:00;;;;;;;10.33;5.60;;;;;;;;;;5076580;28;20578;-68
2021/04/16 06:17:25;;;;;;;10.10;6.00;;;;;;;;;;5078683;28;20176;-70
2021/04/16 06:19:50;;;;;;;11.67;6.47;;;;;;;;;;5078298;28;20657;-70
2021/04/16 06:22:17;;;;;;;12.30;6.03;;;;;;;;;;5078978;28;20271;-69
2021/04/16 06:24:42;;;;;;;11.23;5.73;;;;;;;;;;5079572;28;20176;-70
2021/04/16 06:27:07;;;;;;;11.77;6.40;;;;;;;;;;5079018;28;20204;-69
2021/04/16 06:29:33;;;;;;;9.93;5.97;;;;;;;;;;5079174;28;20208;-68
2021/04/16 06:31:58;;;;;;;11.50;6.97;;;;;;;;;;5078611;28;20292;-70
2021/04/16 06:34:23;;;;;;;11.80;6.47;;;;;;;;;;5081152;28;20180;-67
2021/04/16 06:36:49;;;;;;;11.37;6.50;;;;;;;;;;5080118;28;20176;-68
2021/04/16 06:39:14;;;;;;;9.97;6.83;;;;;;;;;;5077706;28;20521;-68
2021/04/16 06:41:40;;;;;;;14.83;6.80;;;;;;;;;;5077676;28;20207;-68
2021/04/16 06:44:15;;;;;;;11.83;6.30;;;;;;;;;;5081049;28;20263;-68
2021/04/16 06:46:42;;;;;;;13.03;6.03;;;;;;;;;;5077931;28;20460;-71
2021/04/16 06:49:10;;;;;;;9.73;6.20;;;;;;;;;;5077250;28;20265;-70
2021/04/16 06:51:38;;;;;;;11.07;5.60;;;;;;;;;;5077919;28;20201;-70
2021/04/16 06:54:06;;;;;;;13.27;6.03;;;;;;;;;;5075877;28;20176;-70
2021/04/16 06:56:39;;;;;;;15.73;5.60;;;;;;;;;;5077573;28;20587;-70
2021/04/16 06:59:04;;;;;;;10.20;5.40;;;;;;;;;;5077794;28;20184;-69
2021/04/16 07:01:36;;;;;;;9.32;5.03;;;;;;;;;;5071703;28;20203;-69
2021/04/16 07:04:08;;;;;;;8.27;4.80;;;;;;;;;;5076159;28;20220;-69
2021/04/16 07:06:34;;;;;;;9.43;5.37;;;;;;;;;;5076082;28;20188;-69
2021/04/16 07:09:04;;;;;;;9.70;5.23;;;;;;;;;;5079375;28;20472;-70
2021/04/16 07:11:36;;;;;;;9.60;6.10;;;;;;;;;;5081412;28;20554;-70
2021/04/16 07:14:03;;;;;;;12.37;5.60;;;;;;;;;;5076967;28;20188;-70
2021/04/16 07:16:30;;;;;;;10.97;4.97;;;;;;;;;;5082865;28;20698;-70
2021/04/16 07:19:01;;;;;;;9.90;5.43;;;;;;;;;;5080643;28;20542;-69
2021/04/16 07:21:26;;;;;;;8.90;5.40;;;;;;;;;;5075567;28;20204;-69
2021/04/16 07:23:53;;;;;;;7.93;4.50;;;;;;;;;;5072848;28;20189;-69
2021/04/16 07:26:38;;;;;;;12.00;4.70;;;;;;;;;;5074260;28;20666;-70
2021/04/16 07:29:04;;;;;;;10.13;5.37;;;;;;;;;;5078390;28;20217;-70
2021/04/16 07:31:32;;;;;;;11.07;4.70;;;;;;;;;;5078679;28;20814;-69
2021/04/16 07:33:59;;;;;;;8.70;4.60;;;;;;;;;;5075195;28;20189;-69
2021/04/16 07:36:35;;;;;;;8.30;4.77;;;;;;;;;;5079193;28;20188;-69
2021/04/16 07:39:04;;;;;;;7.50;4.83;;;;;;;;;;5078026;28;20223;-69
2021/04/16 07:41:31;;;;;;;8.47;4.17;;;;;;;;;;5077539;28;20205;-69
2021/04/16 07:43:59;;;;;;;12.30;6.00;;;;;;;;;;5081547;28;20548;-69
2021/04/16 07:46:27;;;;;;;10.47;4.60;;;;;;;;;;5089592;28;20207;-69
2021/04/16 07:48:52;;;;;;;8.10;3.73;;;;;;;;;;5082651;28;20203;-69
2021/04/16 07:51:31;;;;;;;9.07;3.87;;;;;;;;;;5084372;28;20277;-69
2021/04/16 07:54:11;;;;;;;12.67;3.97;;;;;;;;;;5082683;28;20180;-69
2021/04/16 07:56:36;;;;;;;9.70;4.73;;;;;;;;;;5089917;28;20180;-69
2021/04/16 07:59:05;;;;;;;7.67;4.20;;;;;;;;;;5077308;28;20185;-69
2021/04/16 08:01:34;;;;;;;10.30;4.57;;;;;;;;;;5072735;28;20227;-68
2021/04/16 08:03:59;;;;;;;13.43;4.53;;;;;;;;;;5078743;28;20654;-69
2021/04/16 08:06:30;;;;;;;8.33;5.03;;;;;;;;;;5082439;28;20245;-69
2021/04/16 08:08:55;;;;;;;10.70;4.87;;;;;;;;;;5076477;28;20615;-69
2021/04/16 08:11:30;;;;;;;10.90;5.10;;;;;;;;;;5073966;28;20197;-69
2021/04/16 08:14:08;;;;;;;7.97;4.80;;;;;;;;;;5079711;28;20171;-69
2021/04/16 08:16:40;;;;;;;9.00;4.53;;;;;;;;;;5083495;28;20179;-70
2021/04/16 08:19:23;;;;;;;7.20;4.20;;;;;;;;;;5072775;28;20643;-69
2021/04/16 08:21:51;;;;;;;9.13;5.03;;;;;;;;;;5076662;28;20223;-69
2021/04/16 08:24:16;;;;;;;9.67;4.57;;;;;;;;;;5082379;28;20244;-69
2021/04/16 08:26:43;;;;;;;9.87;5.73;;;;;;;;;;5079727;28;20177;-70
2021/04/16 08:29:28;;;;;;;8.00;4.10;;;;;;;;;;5079680;28;20294;-69
2021/04/16 08:32:00;;;;;;;7.50;4.93;;;;;;;;;;5070954;28;20584;-69
2021/04/16 08:34:31;;;;;;;7.27;4.83;;;;;;;;;;5072722;28;20231;-70
2021/04/16 08:36:58;;;;;;;7.90;4.97;;;;;;;;;;5077094;28;20180;-69
2021/04/16 08:39:34;;;;;;;9.03;4.73;;;;;;;;;;5082992;28;20184;-69
2021/04/16 08:42:04;;;;;;;6.90;4.15;;;;;;;;;;5076946;28;20211;-69
2021/04/16 08:44:33;;;;;;;9.87;5.63;;;;;;;;;;5078404;28;20180;-69
2021/04/16 08:46:59;;;;;;;9.48;5.05;;;;;;;;;;5071390;28;20224;-69
2021/04/16 08:49:27;;;;;;;9.63;4.90;;;;;;;;;;5071445;28;20415;-69
2021/04/16 08:51:59;;;;;;;8.43;4.07;;;;;;;;;;5074058;28;20209;-69
2021/04/16 08:54:27;;;;;;;7.35;4.38;;;;;;;;;;5082768;28;20256;-69
2021/04/16 08:56:54;;;;;;;6.32;4.28;;;;;;;;;;5073043;28;20210;-69
2021/04/16 08:59:20;;;;;;;10.50;5.78;;;;;;;;;;5074557;28;20176;-69
2021/04/16 09:02:06;;;;;;;5.68;3.90;;;;;;;;;;5080129;28;20200;-68
2021/04/16 09:04:31;;;;;;;7.68;5.32;;;;;;;;;;5073861;28;20185;-69
2021/04/16 09:06:57;;;;;;;4.78;3.47;;;;;;;;;;5076925;28;20188;-69
2021/04/16 09:09:39;;;;;;;5.50;3.47;;;;;;;;;;5074390;28;20457;-69
2021/04/16 09:12:04;;;;;;;4.47;3.25;;;;;;;;;;5073152;28;22115;-69
2021/04/16 09:14:29;;;;;;;4.05;2.42;;;;;;;;;;5079396;28;20168;-69
2021/04/16 09:17:04;;;;;;;5.85;2.90;;;;;;;;;;5086918;28;20951;-68
2021/04/16 09:19:29;;;;;;;8.23;3.92;;;;;;;;;;5079059;28;20662;-70
2021/04/16 09:22:03;;;;;;;3.88;3.30;;;;;;;;;;5076415;28;20199;-69
2021/04/16 09:24:41;;;;;;;6.22;2.97;;;;;;;;;;5077211;28;20771;-68
2021/04/16 09:27:14;;;;;;;5.82;2.83;;;;;;;;;;5080406;28;20187;-69
2021/04/16 09:29:39;;;;;;;5.20;2.75;;;;;;;;;;5076927;28;20204;-69
2021/04/16 09:32:23;;;;;;;6.63;2.90;;;;;;;;;;5081253;28;20210;-69
2021/04/16 09:34:48;;;;;;;4.40;2.60;;;;;;;;;;5073579;28;20208;-69
2021/04/16 09:37:32;;;;;;;3.63;2.93;;;;;;;;;;5073681;28;20208;-69
2021/04/16 09:40:00;;;;;;;22.20;3.78;;;;;;;;;;5075574;28;20420;-69
2021/04/16 09:42:51;;;;;;;3.75;2.55;;;;;;;;;;5075087;28;20636;-70
2021/04/16 09:45:32;;;;;;;5.72;3.00;;;;;;;;;;5075695;28;20188;-69
2021/04/16 09:48:02;;;;;;;4.63;2.50;;;;;;;;;;5072595;28;20189;-68
2021/04/16 09:50:34;;;;;;;3.85;2.40;;;;;;;;;;5076334;28;20638;-69
2021/04/16 09:53:16;;;;;;;6.68;3.10;;;;;;;;;;5074837;28;20252;-69
2021/04/16 09:55:41;;;;;;;3.15;2.30;;;;;;;;;;5082455;28;20202;-69
2021/04/16 09:58:07;;;;;;;2.92;2.20;;;;;;;;;;5080001;28;21214;-69
2021/04/16 10:00:35;;;;;;;3.30;2.17;;;;;;;;;;5074314;28;20705;-69
2021/04/16 10:03:19;;;;;;;5.43;2.58;;;;;;;;;;5081122;28;20180;-69
2021/04/16 10:05:44;;;;;;;4.90;2.45;;;;;;;;;;5077530;28;20181;-69
2021/04/16 10:08:23;;;;;;;5.63;2.97;;;;;;;;;;5077369;28;20594;-69
2021/04/16 10:10:49;;;;;;;9.98;3.30;;;;;;;;;;5074427;28;20204;-69
2021/04/16 10:13:19;;;;;;;4.85;2.20;;;;;;;;;;5081067;28;20665;-69
2021/04/16 10:15:45;;;;;;;7.47;3.17;;;;;;;;;;5075255;28;20185;-69
2021/04/16 10:18:14;;;;;;;5.90;2.25;;;;;;;;;;5076106;28;20241;-70
2021/04/16 10:20:52;;;;;;;1.92;1.50;;;;;;;;;;5083420;28;20199;-69
2021/04/16 10:23:22;;;;;;;1.67;1.58;;;;;;;;;;5080972;28;20267;-68
2021/04/16 11:20:30;;;;;;;2.83;2.10;;;;;;;;;;5084415;28;20672;-69
2021/04/16 12:40:56;;;;;;;3.05;2.13;;;;;;;;;;5071746;28;20258;-67
2021/04/16 12:43:22;;;;;;;4.15;2.28;;;;;;;;;;5073223;28;20617;-67
2021/04/16 12:45:50;;;;;;;2.70;1.95;;;;;;;;;;5077583;28;20176;-68
2021/04/16 12:48:15;;;;;;;3.58;2.17;;;;;;;;;;5085839;28;20180;-68
2021/04/16 12:50:40;;;;;;;3.20;2.40;;;;;;;;;;5078132;28;20212;-68
2021/04/16 12:53:05;;;;;;;4.67;2.63;;;;;;;;;;5082822;28;20511;-68
2021/04/16 12:55:30;;;;;;;4.70;2.55;;;;;;;;;;5085497;28;20421;-69
2021/04/16 12:57:59;;;;;;;4.03;2.58;;;;;;;;;;5072875;28;20794;-68
2021/04/16 13:00:26;;;;;;;4.30;2.38;;;;;;;;;;5086019;28;20208;-69
2021/04/16 13:02:57;;;;;;;2.60;2.10;;;;;;;;;;5084661;28;20209;-68
2021/04/16 13:05:23;;;;;;;4.85;2.88;;;;;;;;;;5080447;28;20544;-68
2021/04/16 13:07:48;;;;;;;3.47;2.38;;;;;;;;;;5081318;28;20184;-69
2021/04/16 13:10:15;;;;;;;5.60;2.70;;;;;;;;;;5078079;28;20573;-68
2021/04/16 13:12:40;;;;;;;3.65;2.47;;;;;;;;;;5083053;28;20428;-69
2021/04/16 13:15:06;;;;;;;6.63;2.60;;;;;;;;;;5076070;28;20180;-68
2021/04/16 13:17:31;;;;;;;2.95;2.25;;;;;;;;;;5080901;28;20638;-69
2021/04/16 13:19:57;;;;;;;3.95;2.50;;;;;;;;;;5086078;28;20187;-70
2021/04/16 13:22:25;;;;;;;5.90;2.88;;;;;;;;;;5087222;28;20650;-68
2021/04/16 13:24:50;;;;;;;5.13;2.63;;;;;;;;;;5085025;28;20187;-69
2021/04/16 13:27:21;;;;;;;3.10;2.10;;;;;;;;;;5079586;28;20642;-70
2021/04/16 13:29:46;;;;;;;3.35;2.58;;;;;;;;;;5088791;28;20219;-69
2021/04/16 13:32:12;;;;;;;2.97;2.30;;;;;;;;;;5077959;28;20608;-70
2021/04/16 13:34:39;;;;;;;4.05;2.20;;;;;;;;;;5085554;28;20180;-70
2021/04/16 13:37:05;;;;;;;2.80;2.10;;;;;;;;;;5082462;28;20266;-70
2021/04/16 13:39:30;;;;;;;5.60;2.28;;;;;;;;;;5092158;28;20260;-69
2021/04/16 13:41:55;;;;;;;2.38;2.17;;;;;;;;;;5075596;28;20764;-70
2021/04/16 13:44:20;;;;;;;3.47;2.00;;;;;;;;;;5081781;28;20193;-69
2021/04/16 13:46:48;;;;;;;4.07;2.20;;;;;;;;;;5078764;28;20435;-68
2021/04/16 13:49:16;;;;;;;2.30;1.83;;;;;;;;;;5079539;28;20196;-69
2021/04/16 13:51:41;;;;;;;3.10;2.20;;;;;;;;;;5084805;28;20209;-71
2021/04/16 13:54:07;;;;;;;3.88;2.38;;;;;;;;;;5087162;28;20183;-69
2021/04/16 13:56:33;;;;;;;3.33;1.92;;;;;;;;;;5082791;28;20562;-69
2021/04/16 13:58:58;;;;;;;3.22;2.13;;;;;;;;;;5072790;28;20184;-68
2021/04/16 14:01:24;;;;;;;3.38;2.10;;;;;;;;;;5075844;28;20196;-69
2021/04/16 14:03:50;;;;;;;3.75;2.00;;;;;;;;;;5079051;28;20287;-68
2021/04/16 14:06:23;;;;;;;2.95;2.08;;;;;;;;;;5084567;28;20177;-69
2021/04/16 14:08:52;;;;;;;4.80;2.03;;;;;;;;;;5081366;28;20184;-67
2021/04/16 14:11:17;;;;;;;2.20;2.00;;;;;;;;;;5074025;28;20211;-71
2021/04/16 14:13:42;;;;;;;2.95;1.98;;;;;;;;;;5077926;28;20177;-68
2021/04/16 14:16:10;;;;;;;2.20;1.77;;;;;;;;;;5076355;28;20181;-67
2021/04/16 14:18:37;;;;;;;4.88;2.38;;;;;;;;;;5085019;28;20432;-68
2021/04/16 14:21:07;;;;;;;3.72;2.10;;;;;;;;;;5079757;28;20201;-68
2021/04/16 14:23:32;;;;;;;4.05;1.80;;;;;;;;;;5078063;28;20184;-68
2021/04/16 14:25:58;;;;;;;2.63;1.80;;;;;;;;;;5079250;28;20271;-66
2021/04/16 14:28:24;;;;;;;2.03;1.58;;;;;;;;;;5079667;28;20192;-69
2021/04/16 14:30:50;;;;;;;3.03;1.70;;;;;;;;;;5083882;28;20197;-69
2021/04/16 14:33:19;;;;;;;3.60;2.33;;;;;;;;;;5072532;28;20177;-68
2021/04/16 14:35:44;;;;;;;2.63;1.70;;;;;;;;;;5071580;28;20223;-68
2021/04/16 14:38:09;;;;;;;4.43;1.85;;;;;;;;;;5076930;28;20208;-69
2021/04/16 14:40:35;;;;;;;5.85;2.10;;;;;;;;;;5082867;28;20196;-69
2021/04/16 14:43:02;;;;;;;2.40;1.70;;;;;;;;;;5075090;28;20372;-69
2021/04/16 14:45:28;;;;;;;3.10;1.55;;;;;;;;;;5080095;28;20631;-68
2021/04/16 14:47:56;;;;;;;4.70;2.05;;;;;;;;;;5076780;28;20608;-68
2021/04/16 14:50:21;;;;;;;2.92;1.70;;;;;;;;;;5078689;28;20223;-68
2021/04/16 14:52:47;;;;;;;4.85;2.13;;;;;;;;;;5077065;28;20180;-69
2021/04/16 14:55:14;;;;;;;4.60;2.10;;;;;;;;;;5076559;28;20227;-68
2021/04/16 14:57:40;;;;;;;4.30;1.92;;;;;;;;;;5072358;28;20517;-68
2021/04/16 15:00:13;;;;;;;4.38;1.63;;;;;;;;;;5076934;28;20608;-68
2021/04/16 15:02:38;;;;;;;2.42;1.58;;;;;;;;;;5071964;28;20192;-69
2021/04/16 15:05:04;;;;;;;3.83;1.60;;;;;;;;;;5081418;28;20180;-68
2021/04/16 15:07:31;;;;;;;3.30;1.65;;;;;;;;;;5075661;28;20416;-68
2021/04/16 15:10:01;;;;;;;3.17;1.90;;;;;;;;;;5078922;28;20206;-69
2021/04/16 15:12:27;;;;;;;2.50;1.65;;;;;;;;;;5073770;28;20280;-69
2021/04/16 15:14:55;;;;;;;6.35;1.90;;;;;;;;;;5075395;28;20292;-70
2021/04/16 15:17:20;;;;;;;4.18;1.65;;;;;;;;;;5079304;28;20658;-70
2021/04/16 15:19:47;;;;;;;5.15;1.67;;;;;;;;;;5082598;28;20181;-68
2021/04/16 15:22:15;;;;;;;2.83;1.98;;;;;;;;;;5078551;28;20582;-69
2021/04/16 15:24:41;;;;;;;3.30;1.92;;;;;;;;;;5071365;28;20249;-69
2021/04/16 15:27:09;;;;;;;3.63;1.65;;;;;;;;;;5075993;28;20187;-71
2021/04/16 15:29:38;;;;;;;3.50;1.90;;;;;;;;;;5081870;28;20203;-69
2021/04/16 15:32:05;;;;;;;6.90;2.67;;;;;;;;;;5077041;28;20669;-70
2021/04/16 15:48:18;;;;;;;2.40;1.58;;;;;;;;;;5081137;28;20191;-69
2021/04/16 15:50:47;;;;;;;2.50;1.58;;;;;;;;;;5081859;28;20203;-69
2021/04/16 15:53:12;;;;;;;4.30;1.63;;;;;;;;;;5070090;28;20235;-69
2021/04/16 15:55:38;;;;;;;5.07;1.92;;;;;;;;;;5068259;28;20196;-69
2021/04/16 15:58:08;;;;;;;5.07;2.03;;;;;;;;;;5076173;28;20254;-70
2021/04/16 16:00:38;;;;;;;3.58;2.33;;;;;;;;;;5070357;28;20212;-69
2021/04/16 16:03:03;;;;;;;4.75;2.13;;;;;;;;;;5073922;28;20180;-69
2021/04/16 16:05:29;;;;;;;3.72;1.98;;;;;;;;;;5081079;28;20611;-69
2021/04/16 16:07:54;;;;;;;3.25;1.90;;;;;;;;;;5075913;28;20185;-69
2021/04/16 16:10:19;;;;;;;5.05;1.95;;;;;;;;;;5076275;28;20200;-69
2021/04/16 16:12:48;;;;;;;3.88;1.80;;;;;;;;;;5072521;28;20172;-69
2021/04/16 16:15:20;;;;;;;4.40;1.90;;;;;;;;;;5078575;28;20248;-69
2021/04/16 16:17:45;;;;;;;4.50;2.00;;;;;;;;;;5075036;28;20208;-70
2021/04/16 16:20:13;;;;;;;2.28;1.55;;;;;;;;;;5074245;28;20212;-70
2021/04/16 16:22:39;;;;;;;3.33;1.60;;;;;;;;;;5076319;28;20779;-70
2021/04/16 16:25:05;;;;;;;4.25;2.05;;;;;;;;;;5076047;28;20208;-70
2021/04/16 16:27:31;;;;;;;2.72;2.22;;;;;;;;;;5075190;28;20188;-69
2021/04/16 16:29:57;;;;;;;5.50;2.13;;;;;;;;;;5078076;28;20215;-69
2021/04/16 16:32:24;;;;;;;3.15;1.98;;;;;;;;;;5073275;28;20200;-70
2021/04/16 16:34:49;;;;;;;3.92;1.80;;;;;;;;;;5085741;28;20548;-69
2021/04/16 16:37:16;;;;;;;3.75;1.77;;;;;;;;;;5080135;28;20183;-69
2021/04/16 16:39:41;;;;;;;2.92;1.77;;;;;;;;;;5070963;28;20688;-70
2021/04/16 16:42:07;;;;;;;6.75;2.55;;;;;;;;;;5081248;28;20212;-69
2021/04/16 16:44:35;;;;;;;6.35;2.03;;;;;;;;;;5085488;28;20588;-70
2021/04/16 16:47:01;;;;;;;4.93;1.98;;;;;;;;;;5079308;28;20321;-70
2021/04/16 16:49:26;;;;;;;4.97;2.42;;;;;;;;;;5075131;28;20279;-70
2021/04/16 16:51:53;;;;;;;3.25;1.63;;;;;;;;;;5070690;28;20220;-70
2021/04/16 16:54:18;;;;;;;4.40;1.70;;;;;;;;;;5069498;28;20181;-69
2021/04/16 16:56:44;;;;;;;3.30;1.60;;;;;;;;;;5072979;28;20191;-70
2021/04/16 16:59:10;;;;;;;3.75;1.70;;;;;;;;;;5068388;28;20176;-69
2021/04/16 17:01:35;;;;;;;6.70;2.03;;;;;;;;;;5070341;28;20243;-70
2021/04/16 17:04:01;;;;;;;6.22;2.38;;;;;;;;;;5069883;28;20225;-69
2021/04/16 17:06:27;;;;;;;6.25;2.08;;;;;;;;;;5070260;28;20187;-69